sensor_id;sensor_type;location;lat;lon;timestamp;temperature;humidity
12049;DHT22;6085;49.452;8.502;2023-05-10T00:02:39;13.50;99.90
12049;DHT22;6085;49.452;8.502;2023-05-10T00:06:41;13.40;99.90
12049;DHT22;6085;49.452;8.502;2023-05-10T00:10:45;13.40;99.90
12049;DHT22;6085;49.452;8.502;2023-05-10T00:14:47;13.40;99.90
12049;DHT22;6085;49.452;8.502;2023-05-10T00:18:49;13.40;99.90
12049;DHT22;6085;49.452;8.502;2023-05-10T00:22:51;13.30;99.90
12049;DHT22;6085;49.452;8.502;2023-05-10T00:26:54;13.30;99.90
12049;DHT22;6085;49.452;8.502;2023-05-10T00:30:56;13.20;99.90
12049;DHT22;6085;49.452;8.502;2023-05-10T00:34:58;13.20;99.90
12049;DHT22;6085;49.452;8.502;2023-05-10T00:39:00;13.10;99.90
12049;DHT22;6085;49.452;8.502;2023-05-10T00:43:05;13.10;99.90
12049;DHT22;6085;49.452;8.502;2023-05-10T00:47:07;12.90;99.90
12049;DHT22;6085;49.452;8.502;2023-05-10T00:51:10;12.90;99.90
12049;DHT22;6085;49.452;8.502;2023-05-10T00:55:12;12.90;99.90
12049;DHT22;6085;49.452;8.502;2023-05-10T00:59:16;12.80;99.90
12049;DHT22;6085;49.452;8.502;2023-05-10T01:03:18;12.80;99.90
12049;DHT22;6085;49.452;8.502;2023-05-10T01:07:20;12.80;99.90
12049;DHT22;6085;49.452;8.502;2023-05-10T01:11:22;12.80;99.90
12049;DHT22;6085;49.452;8.502;2023-05-10T01:15:25;12.80;99.90
12049;DHT22;6085;49.452;8.502;2023-05-10T01:19:29;12.80;99.90
12049;DHT22;6085;49.452;8.502;2023-05-10T01:23:45;12.80;99.90
12049;DHT22;6085;49.452;8.502;2023-05-10T01:28:25;12.80;99.90
12049;DHT22;6085;49.452;8.502;2023-05-10T01:32:40;12.70;99.90
12049;DHT22;6085;49.452;8.502;2023-05-10T01:36:51;12.70;99.90
12049;DHT22;6085;49.452;8.502;2023-05-10T01:41:03;12.70;99.90
12049;DHT22;6085;49.452;8.502;2023-05-10T01:45:13;12.70;99.90
12049;DHT22;6085;49.452;8.502;2023-05-10T01:49:22;12.70;99.90
12049;DHT22;6085;49.452;8.502;2023-05-10T01:53:25;12.70;99.90
12049;DHT22;6085;49.452;8.502;2023-05-10T01:57:32;12.60;99.90
12049;DHT22;6085;49.452;8.502;2023-05-10T02:01:36;12.60;99.90
12049;DHT22;6085;49.452;8.502;2023-05-10T02:05:41;12.60;99.90
12049;DHT22;6085;49.452;8.502;2023-05-10T02:09:45;12.50;99.90
12049;DHT22;6085;49.452;8.502;2023-05-10T02:13:49;12.50;99.90
12049;DHT22;6085;49.452;8.502;2023-05-10T02:17:54;12.50;99.90
12049;DHT22;6085;49.452;8.502;2023-05-10T02:21:58;12.40;99.90
12049;DHT22;6085;49.452;8.502;2023-05-10T02:26:01;12.40;99.90
12049;DHT22;6085;49.452;8.502;2023-05-10T02:30:05;12.30;99.90
12049;DHT22;6085;49.452;8.502;2023-05-10T02:34:08;12.30;99.90
12049;DHT22;6085;49.452;8.502;2023-05-10T02:38:13;12.20;99.90
12049;DHT22;6085;49.452;8.502;2023-05-10T02:42:17;12.30;99.90
12049;DHT22;6085;49.452;8.502;2023-05-10T02:46:19;12.30;99.90
12049;DHT22;6085;49.452;8.502;2023-05-10T02:50:22;12.40;99.90
12049;DHT22;6085;49.452;8.502;2023-05-10T02:54:31;12.40;99.90
12049;DHT22;6085;49.452;8.502;2023-05-10T02:58:34;12.50;99.90
12049;DHT22;6085;49.452;8.502;2023-05-10T03:02:36;12.50;99.90
12049;DHT22;6085;49.452;8.502;2023-05-10T03:06:39;12.50;99.90
12049;DHT22;6085;49.452;8.502;2023-05-10T03:10:50;12.40;99.90
12049;DHT22;6085;49.452;8.502;2023-05-10T03:15:00;12.40;99.90
12049;DHT22;6085;49.452;8.502;2023-05-10T03:19:10;12.50;99.90
12049;DHT22;6085;49.452;8.502;2023-05-10T03:23:21;12.50;99.90
12049;DHT22;6085;49.452;8.502;2023-05-10T03:27:27;12.50;99.90
12049;DHT22;6085;49.452;8.502;2023-05-10T03:31:29;12.50;99.90
12049;DHT22;6085;49.452;8.502;2023-05-10T03:35:31;12.50;99.90
12049;DHT22;6085;49.452;8.502;2023-05-10T03:39:33;12.50;99.90
12049;DHT22;6085;49.452;8.502;2023-05-10T03:43:36;12.40;99.90
12049;DHT22;6085;49.452;8.502;2023-05-10T03:47:39;12.30;99.90
12049;DHT22;6085;49.452;8.502;2023-05-10T03:51:41;12.20;99.90
12049;DHT22;6085;49.452;8.502;2023-05-10T03:55:43;12.10;99.90
12049;DHT22;6085;49.452;8.502;2023-05-10T03:59:46;12.00;99.90
12049;DHT22;6085;49.452;8.502;2023-05-10T04:03:48;11.80;99.90
12049;DHT22;6085;49.452;8.502;2023-05-10T04:07:50;11.80;99.90
12049;DHT22;6085;49.452;8.502;2023-05-10T04:11:53;11.70;99.90
12049;DHT22;6085;49.452;8.502;2023-05-10T04:15:57;11.80;99.90
12049;DHT22;6085;49.452;8.502;2023-05-10T04:19:59;11.80;99.90
12049;DHT22;6085;49.452;8.502;2023-05-10T04:24:01;11.90;99.90
12049;DHT22;6085;49.452;8.502;2023-05-10T04:28:03;12.00;99.90
12049;DHT22;6085;49.452;8.502;2023-05-10T04:32:07;11.90;99.90
12049;DHT22;6085;49.452;8.502;2023-05-10T04:36:10;12.00;99.90
12049;DHT22;6085;49.452;8.502;2023-05-10T04:40:12;12.00;99.90
12049;DHT22;6085;49.452;8.502;2023-05-10T04:44:14;12.00;99.90
12049;DHT22;6085;49.452;8.502;2023-05-10T04:48:18;12.10;99.90
12049;DHT22;6085;49.452;8.502;2023-05-10T04:52:19;12.10;99.90
12049;DHT22;6085;49.452;8.502;2023-05-10T04:56:22;12.20;99.90
12049;DHT22;6085;49.452;8.502;2023-05-10T05:00:24;12.30;99.90
12049;DHT22;6085;49.452;8.502;2023-05-10T05:04:27;12.40;99.90
12049;DHT22;6085;49.452;8.502;2023-05-10T05:08:29;12.50;99.90
12049;DHT22;6085;49.452;8.502;2023-05-10T05:12:32;12.60;99.90
12049;DHT22;6085;49.452;8.502;2023-05-10T05:16:34;12.70;99.90
12049;DHT22;6085;49.452;8.502;2023-05-10T05:20:37;12.80;99.90
12049;DHT22;6085;49.452;8.502;2023-05-10T05:24:39;12.90;99.90
12049;DHT22;6085;49.452;8.502;2023-05-10T05:28:41;13.10;99.90
12049;DHT22;6085;49.452;8.502;2023-05-10T05:32:43;13.20;99.90
12049;DHT22;6085;49.452;8.502;2023-05-10T05:36:46;13.20;99.90
12049;DHT22;6085;49.452;8.502;2023-05-10T05:40:48;13.40;99.90
12049;DHT22;6085;49.452;8.502;2023-05-10T05:44:50;13.60;99.90
12049;DHT22;6085;49.452;8.502;2023-05-10T05:48:52;13.70;99.90
12049;DHT22;6085;49.452;8.502;2023-05-10T05:52:56;13.70;99.90
12049;DHT22;6085;49.452;8.502;2023-05-10T05:56:58;13.90;99.90
12049;DHT22;6085;49.452;8.502;2023-05-10T06:01:00;14.00;99.90
12049;DHT22;6085;49.452;8.502;2023-05-10T06:05:03;13.90;99.90
12049;DHT22;6085;49.452;8.502;2023-05-10T06:09:06;13.90;99.90
12049;DHT22;6085;49.452;8.502;2023-05-10T06:13:08;14.10;99.90
12049;DHT22;6085;49.452;8.502;2023-05-10T06:17:10;14.20;99.90
12049;DHT22;6085;49.452;8.502;2023-05-10T06:21:12;14.30;99.90
12049;DHT22;6085;49.452;8.502;2023-05-10T06:25:15;14.70;99.90
12049;DHT22;6085;49.452;8.502;2023-05-10T06:29:19;14.90;99.90
12049;DHT22;6085;49.452;8.502;2023-05-10T06:33:21;15.10;99.90
12049;DHT22;6085;49.452;8.502;2023-05-10T06:37:23;15.20;99.90
12049;DHT22;6085;49.452;8.502;2023-05-10T06:41:26;15.20;99.90
12049;DHT22;6085;49.452;8.502;2023-05-10T06:45:28;15.20;99.90
12049;DHT22;6085;49.452;8.502;2023-05-10T06:49:30;15.30;99.90
12049;DHT22;6085;49.452;8.502;2023-05-10T06:53:32;15.10;99.90
12049;DHT22;6085;49.452;8.502;2023-05-10T06:57:35;14.90;99.90
12049;DHT22;6085;49.452;8.502;2023-05-10T07:01:37;14.90;99.90
12049;DHT22;6085;49.452;8.502;2023-05-10T07:05:39;15.00;99.90
12049;DHT22;6085;49.452;8.502;2023-05-10T07:09:41;15.20;99.90
12049;DHT22;6085;49.452;8.502;2023-05-10T07:13:45;15.80;99.90
12049;DHT22;6085;49.452;8.502;2023-05-10T07:17:47;16.40;99.90
12049;DHT22;6085;49.452;8.502;2023-05-10T07:21:49;16.70;99.90
12049;DHT22;6085;49.452;8.502;2023-05-10T07:25:51;16.90;99.90
12049;DHT22;6085;49.452;8.502;2023-05-10T07:29:55;16.80;99.90
12049;DHT22;6085;49.452;8.502;2023-05-10T07:33:57;16.70;99.90
12049;DHT22;6085;49.452;8.502;2023-05-10T07:37:59;16.90;99.90
12049;DHT22;6085;49.452;8.502;2023-05-10T07:42:01;17.30;99.90
12049;DHT22;6085;49.452;8.502;2023-05-10T07:46:05;17.50;99.90
12049;DHT22;6085;49.452;8.502;2023-05-10T07:50:08;17.60;99.90
12049;DHT22;6085;49.452;8.502;2023-05-10T07:54:10;17.60;99.90
12049;DHT22;6085;49.452;8.502;2023-05-10T07:58:13;17.90;99.90
12049;DHT22;6085;49.452;8.502;2023-05-10T08:02:16;18.60;99.90
12049;DHT22;6085;49.452;8.502;2023-05-10T08:06:18;19.00;99.90
12049;DHT22;6085;49.452;8.502;2023-05-10T08:10:20;18.80;99.90
12049;DHT22;6085;49.452;8.502;2023-05-10T08:14:22;17.90;99.90
12049;DHT22;6085;49.452;8.502;2023-05-10T08:18:26;17.40;99.90
12049;DHT22;6085;49.452;8.502;2023-05-10T08:22:28;17.20;99.90
12049;DHT22;6085;49.452;8.502;2023-05-10T08:26:30;17.20;99.90
12049;DHT22;6085;49.452;8.502;2023-05-10T08:30:32;17.30;99.90
12049;DHT22;6085;49.452;8.502;2023-05-10T08:34:36;17.50;99.90
12049;DHT22;6085;49.452;8.502;2023-05-10T08:38:38;17.60;99.90
12049;DHT22;6085;49.452;8.502;2023-05-10T08:42:44;17.30;99.90
12049;DHT22;6085;49.452;8.502;2023-05-10T08:46:52;17.20;99.90
12049;DHT22;6085;49.452;8.502;2023-05-10T08:50:58;17.00;99.90
12049;DHT22;6085;49.452;8.502;2023-05-10T08:55:02;17.00;99.90
12049;DHT22;6085;49.452;8.502;2023-05-10T08:59:04;16.70;99.90
12049;DHT22;6085;49.452;8.502;2023-05-10T09:03:06;16.50;99.90
12049;DHT22;6085;49.452;8.502;2023-05-10T09:07:10;16.30;99.90
12049;DHT22;6085;49.452;8.502;2023-05-10T09:11:13;16.10;99.90
12049;DHT22;6085;49.452;8.502;2023-05-10T09:15:15;15.90;99.90
12049;DHT22;6085;49.452;8.502;2023-05-10T09:19:19;16.00;99.90
12049;DHT22;6085;49.452;8.502;2023-05-10T09:23:23;15.80;99.90
12049;DHT22;6085;49.452;8.502;2023-05-10T09:27:31;15.60;99.90
12049;DHT22;6085;49.452;8.502;2023-05-10T09:31:47;15.70;99.90
12049;DHT22;6085;49.452;8.502;2023-05-10T09:35:52;15.90;99.90
12049;DHT22;6085;49.452;8.502;2023-05-10T09:39:55;16.40;99.90
12049;DHT22;6085;49.452;8.502;2023-05-10T09:43:57;16.50;99.90
12049;DHT22;6085;49.452;8.502;2023-05-10T09:48:00;16.60;99.90
12049;DHT22;6085;49.452;8.502;2023-05-10T09:52:04;16.60;99.90
12049;DHT22;6085;49.452;8.502;2023-05-10T09:56:07;16.50;99.90
12049;DHT22;6085;49.452;8.502;2023-05-10T10:00:10;16.70;99.90
12049;DHT22;6085;49.452;8.502;2023-05-10T10:04:19;17.00;99.90
12049;DHT22;6085;49.452;8.502;2023-05-10T10:08:21;17.30;99.90
12049;DHT22;6085;49.452;8.502;2023-05-10T10:12:25;17.70;99.90
12049;DHT22;6085;49.452;8.502;2023-05-10T10:16:28;18.10;99.90
12049;DHT22;6085;49.452;8.502;2023-05-10T10:20:30;17.90;99.90
12049;DHT22;6085;49.452;8.502;2023-05-10T10:24:33;17.30;99.90
12049;DHT22;6085;49.452;8.502;2023-05-10T10:28:40;17.10;99.90
12049;DHT22;6085;49.452;8.502;2023-05-10T10:37:42;16.70;99.90
12049;DHT22;6085;49.452;8.502;2023-05-10T10:41:50;17.20;99.90
12049;DHT22;6085;49.452;8.502;2023-05-10T10:46:13;17.70;99.90
12049;DHT22;6085;49.452;8.502;2023-05-10T10:50:15;18.00;99.90
12049;DHT22;6085;49.452;8.502;2023-05-10T10:54:27;18.30;99.90
12049;DHT22;6085;49.452;8.502;2023-05-10T10:58:30;19.30;99.90
12049;DHT22;6085;49.452;8.502;2023-05-10T11:02:43;20.80;99.90
12049;DHT22;6085;49.452;8.502;2023-05-10T11:06:46;22.10;99.90
12049;DHT22;6085;49.452;8.502;2023-05-10T11:11:06;22.30;99.90
12049;DHT22;6085;49.452;8.502;2023-05-10T11:15:09;21.80;99.90
12049;DHT22;6085;49.452;8.502;2023-05-10T11:19:13;21.90;99.90
12049;DHT22;6085;49.452;8.502;2023-05-10T11:23:15;21.90;99.90
12049;DHT22;6085;49.452;8.502;2023-05-10T11:27:18;21.60;99.90
12049;DHT22;6085;49.452;8.502;2023-05-10T11:31:22;21.50;99.90
12049;DHT22;6085;49.452;8.502;2023-05-10T11:35:28;20.40;99.90
12049;DHT22;6085;49.452;8.502;2023-05-10T11:39:31;20.20;99.90
12049;DHT22;6085;49.452;8.502;2023-05-10T11:43:34;19.60;99.90
12049;DHT22;6085;49.452;8.502;2023-05-10T11:47:37;19.30;99.90
12049;DHT22;6085;49.452;8.502;2023-05-10T11:51:42;19.20;99.90
12049;DHT22;6085;49.452;8.502;2023-05-10T11:55:44;19.50;99.90
12049;DHT22;6085;49.452;8.502;2023-05-10T11:59:47;19.60;99.90
12049;DHT22;6085;49.452;8.502;2023-05-10T12:03:50;20.00;99.90
12049;DHT22;6085;49.452;8.502;2023-05-10T12:08:12;19.90;99.90
12049;DHT22;6085;49.452;8.502;2023-05-10T12:12:17;19.90;99.90
12049;DHT22;6085;49.452;8.502;2023-05-10T12:16:20;20.30;99.90
12049;DHT22;6085;49.452;8.502;2023-05-10T12:20:24;20.40;99.90
12049;DHT22;6085;49.452;8.502;2023-05-10T12:24:27;20.20;99.90
12049;DHT22;6085;49.452;8.502;2023-05-10T12:28:30;20.00;99.90
12049;DHT22;6085;49.452;8.502;2023-05-10T12:32:39;19.70;99.90
12049;DHT22;6085;49.452;8.502;2023-05-10T12:36:41;19.60;99.90
12049;DHT22;6085;49.452;8.502;2023-05-10T12:40:44;18.90;99.90
12049;DHT22;6085;49.452;8.502;2023-05-10T12:44:46;19.00;99.90
12049;DHT22;6085;49.452;8.502;2023-05-10T12:48:48;19.40;99.90
12049;DHT22;6085;49.452;8.502;2023-05-10T12:52:55;18.90;99.90
12049;DHT22;6085;49.452;8.502;2023-05-10T12:56:58;18.50;99.90
12049;DHT22;6085;49.452;8.502;2023-05-10T13:01:01;18.90;99.90
12049;DHT22;6085;49.452;8.502;2023-05-10T13:05:03;19.30;99.90
12049;DHT22;6085;49.452;8.502;2023-05-10T13:09:06;19.40;99.90
12049;DHT22;6085;49.452;8.502;2023-05-10T13:13:11;19.40;99.90
12049;DHT22;6085;49.452;8.502;2023-05-10T13:17:13;19.70;99.90
12049;DHT22;6085;49.452;8.502;2023-05-10T13:21:14;20.00;99.90
12049;DHT22;6085;49.452;8.502;2023-05-10T13:25:17;20.00;99.90
12049;DHT22;6085;49.452;8.502;2023-05-10T13:29:20;19.90;99.90
12049;DHT22;6085;49.452;8.502;2023-05-10T13:33:23;19.40;99.90
12049;DHT22;6085;49.452;8.502;2023-05-10T13:37:25;18.80;99.90
12049;DHT22;6085;49.452;8.502;2023-05-10T13:41:27;19.10;99.90
12049;DHT22;6085;49.452;8.502;2023-05-10T13:45:30;19.20;99.90
12049;DHT22;6085;49.452;8.502;2023-05-10T13:49:34;19.30;99.90
12049;DHT22;6085;49.452;8.502;2023-05-10T13:53:36;19.10;99.90
12049;DHT22;6085;49.452;8.502;2023-05-10T13:57:38;19.20;99.90
12049;DHT22;6085;49.452;8.502;2023-05-10T14:01:42;19.60;99.90
12049;DHT22;6085;49.452;8.502;2023-05-10T14:05:44;19.40;99.90
12049;DHT22;6085;49.452;8.502;2023-05-10T14:09:47;19.60;99.90
12049;DHT22;6085;49.452;8.502;2023-05-10T14:13:49;19.50;99.90
12049;DHT22;6085;49.452;8.502;2023-05-10T14:17:53;19.70;99.90
12049;DHT22;6085;49.452;8.502;2023-05-10T14:21:55;19.90;99.90
12049;DHT22;6085;49.452;8.502;2023-05-10T14:25:57;19.60;99.90
12049;DHT22;6085;49.452;8.502;2023-05-10T14:29:59;19.50;99.90
12049;DHT22;6085;49.452;8.502;2023-05-10T14:34:02;19.50;99.90
12049;DHT22;6085;49.452;8.502;2023-05-10T14:38:04;19.40;99.90
12049;DHT22;6085;49.452;8.502;2023-05-10T14:42:06;19.30;99.90
12049;DHT22;6085;49.452;8.502;2023-05-10T14:46:08;19.30;99.90
12049;DHT22;6085;49.452;8.502;2023-05-10T14:50:11;19.40;99.90
12049;DHT22;6085;49.452;8.502;2023-05-10T14:54:13;19.60;99.90
12049;DHT22;6085;49.452;8.502;2023-05-10T14:58:16;19.80;99.90
12049;DHT22;6085;49.452;8.502;2023-05-10T15:02:18;20.00;99.90
12049;DHT22;6085;49.452;8.502;2023-05-10T15:06:30;19.90;99.90
12049;DHT22;6085;49.452;8.502;2023-05-10T15:10:33;20.00;99.90
12049;DHT22;6085;49.452;8.502;2023-05-10T15:14:35;20.20;99.90
12049;DHT22;6085;49.452;8.502;2023-05-10T15:18:37;19.90;99.90
12049;DHT22;6085;49.452;8.502;2023-05-10T15:22:41;19.90;99.90
12049;DHT22;6085;49.452;8.502;2023-05-10T15:26:43;19.90;99.90
12049;DHT22;6085;49.452;8.502;2023-05-10T15:30:45;19.60;99.90
12049;DHT22;6085;49.452;8.502;2023-05-10T15:34:47;19.30;99.90
12049;DHT22;6085;49.452;8.502;2023-05-10T15:38:50;19.40;99.90
12049;DHT22;6085;49.452;8.502;2023-05-10T15:42:52;19.40;99.90
12049;DHT22;6085;49.452;8.502;2023-05-10T15:46:54;19.50;99.90
12049;DHT22;6085;49.452;8.502;2023-05-10T15:50:56;19.70;99.90
12049;DHT22;6085;49.452;8.502;2023-05-10T15:54:59;19.80;99.90
12049;DHT22;6085;49.452;8.502;2023-05-10T15:59:01;19.80;99.90
12049;DHT22;6085;49.452;8.502;2023-05-10T16:03:03;19.50;99.90
12049;DHT22;6085;49.452;8.502;2023-05-10T16:07:06;19.20;99.90
12049;DHT22;6085;49.452;8.502;2023-05-10T16:11:09;19.00;99.90
12049;DHT22;6085;49.452;8.502;2023-05-10T16:15:11;18.90;99.90
12049;DHT22;6085;49.452;8.502;2023-05-10T16:19:13;18.90;99.90
12049;DHT22;6085;49.452;8.502;2023-05-10T16:23:15;18.80;99.90
12049;DHT22;6085;49.452;8.502;2023-05-10T16:27:18;18.80;99.90
12049;DHT22;6085;49.452;8.502;2023-05-10T16:31:20;18.70;99.90
12049;DHT22;6085;49.452;8.502;2023-05-10T16:35:22;18.70;99.90
12049;DHT22;6085;49.452;8.502;2023-05-10T16:39:24;18.70;99.90
12049;DHT22;6085;49.452;8.502;2023-05-10T16:43:28;18.60;99.90
12049;DHT22;6085;49.452;8.502;2023-05-10T16:47:30;18.40;99.90
12049;DHT22;6085;49.452;8.502;2023-05-10T16:51:32;18.30;99.90
12049;DHT22;6085;49.452;8.502;2023-05-10T16:55:34;18.40;99.90
12049;DHT22;6085;49.452;8.502;2023-05-10T16:59:37;18.40;99.90
12049;DHT22;6085;49.452;8.502;2023-05-10T17:03:39;18.40;99.90
12049;DHT22;6085;49.452;8.502;2023-05-10T17:07:41;18.40;99.90
12049;DHT22;6085;49.452;8.502;2023-05-10T17:11:46;18.40;99.90
12049;DHT22;6085;49.452;8.502;2023-05-10T17:15:49;18.30;99.90
12049;DHT22;6085;49.452;8.502;2023-05-10T17:19:51;18.30;99.90
12049;DHT22;6085;49.452;8.502;2023-05-10T17:23:53;18.20;99.90
12049;DHT22;6085;49.452;8.502;2023-05-10T17:27:55;18.00;99.90
12049;DHT22;6085;49.452;8.502;2023-05-10T17:31:58;17.80;99.90
12049;DHT22;6085;49.452;8.502;2023-05-10T17:36:00;17.60;99.90
12049;DHT22;6085;49.452;8.502;2023-05-10T17:40:04;17.50;99.90
12049;DHT22;6085;49.452;8.502;2023-05-10T17:44:07;17.40;99.90
12049;DHT22;6085;49.452;8.502;2023-05-10T17:48:10;17.20;99.90
12049;DHT22;6085;49.452;8.502;2023-05-10T17:52:13;17.20;99.90
12049;DHT22;6085;49.452;8.502;2023-05-10T17:56:15;17.10;99.90
12049;DHT22;6085;49.452;8.502;2023-05-10T18:00:17;17.00;99.90
12049;DHT22;6085;49.452;8.502;2023-05-10T18:04:21;16.90;99.90
12049;DHT22;6085;49.452;8.502;2023-05-10T18:08:23;16.70;99.90
12049;DHT22;6085;49.452;8.502;2023-05-10T18:12:26;16.70;99.90
12049;DHT22;6085;49.452;8.502;2023-05-10T18:16:28;16.60;99.90
12049;DHT22;6085;49.452;8.502;2023-05-10T18:20:32;16.50;99.90
12049;DHT22;6085;49.452;8.502;2023-05-10T18:24:34;16.50;99.90
12049;DHT22;6085;49.452;8.502;2023-05-10T18:28:36;16.50;99.90
12049;DHT22;6085;49.452;8.502;2023-05-10T18:32:38;16.40;99.90
12049;DHT22;6085;49.452;8.502;2023-05-10T18:36:41;16.40;99.90
12049;DHT22;6085;49.452;8.502;2023-05-10T18:40:44;16.30;99.90
12049;DHT22;6085;49.452;8.502;2023-05-10T18:44:46;16.30;99.90
12049;DHT22;6085;49.452;8.502;2023-05-10T18:48:48;16.20;99.90
12049;DHT22;6085;49.452;8.502;2023-05-10T18:52:51;16.10;99.90
12049;DHT22;6085;49.452;8.502;2023-05-10T18:56:53;16.00;99.90
12049;DHT22;6085;49.452;8.502;2023-05-10T19:00:56;15.80;99.90
12049;DHT22;6085;49.452;8.502;2023-05-10T19:04:59;15.70;99.90
12049;DHT22;6085;49.452;8.502;2023-05-10T19:09:03;15.50;99.90
12049;DHT22;6085;49.452;8.502;2023-05-10T19:13:05;15.30;99.90
12049;DHT22;6085;49.452;8.502;2023-05-10T19:17:07;15.20;99.90
12049;DHT22;6085;49.452;8.502;2023-05-10T19:21:09;15.10;99.90
12049;DHT22;6085;49.452;8.502;2023-05-10T19:25:12;15.00;99.90
12049;DHT22;6085;49.452;8.502;2023-05-10T19:29:16;15.00;99.90
12049;DHT22;6085;49.452;8.502;2023-05-10T19:33:18;15.00;99.90
12049;DHT22;6085;49.452;8.502;2023-05-10T19:37:20;14.90;99.90
12049;DHT22;6085;49.452;8.502;2023-05-10T19:41:23;14.90;99.90
12049;DHT22;6085;49.452;8.502;2023-05-10T19:45:25;14.90;99.90
12049;DHT22;6085;49.452;8.502;2023-05-10T19:49:27;14.80;99.90
12049;DHT22;6085;49.452;8.502;2023-05-10T19:53:30;14.80;99.90
12049;DHT22;6085;49.452;8.502;2023-05-10T19:57:34;14.70;99.90
12049;DHT22;6085;49.452;8.502;2023-05-10T20:01:36;14.70;99.90
12049;DHT22;6085;49.452;8.502;2023-05-10T20:05:38;14.70;99.90
12049;DHT22;6085;49.452;8.502;2023-05-10T20:09:41;14.60;99.90
12049;DHT22;6085;49.452;8.502;2023-05-10T20:13:44;14.50;99.90
12049;DHT22;6085;49.452;8.502;2023-05-10T20:17:47;14.50;99.90
12049;DHT22;6085;49.452;8.502;2023-05-10T20:21:50;14.60;99.90
12049;DHT22;6085;49.452;8.502;2023-05-10T20:25:55;14.60;99.90
12049;DHT22;6085;49.452;8.502;2023-05-10T20:29:58;14.60;99.90
12049;DHT22;6085;49.452;8.502;2023-05-10T20:34:00;14.60;99.90
12049;DHT22;6085;49.452;8.502;2023-05-10T20:38:02;14.40;99.90
12049;DHT22;6085;49.452;8.502;2023-05-10T20:42:04;14.30;99.90
12049;DHT22;6085;49.452;8.502;2023-05-10T20:46:08;14.20;99.90
12049;DHT22;6085;49.452;8.502;2023-05-10T20:50:10;14.10;99.90
12049;DHT22;6085;49.452;8.502;2023-05-10T20:54:12;14.10;99.90
12049;DHT22;6085;49.452;8.502;2023-05-10T20:58:14;14.00;99.90
12049;DHT22;6085;49.452;8.502;2023-05-10T21:02:17;14.00;99.90
12049;DHT22;6085;49.452;8.502;2023-05-10T21:06:19;13.90;99.90
12049;DHT22;6085;49.452;8.502;2023-05-10T21:10:21;13.80;99.90
12049;DHT22;6085;49.452;8.502;2023-05-10T21:14:24;13.70;99.90
12049;DHT22;6085;49.452;8.502;2023-05-10T21:18:27;13.60;99.90
12049;DHT22;6085;49.452;8.502;2023-05-10T21:22:29;13.50;99.90
12049;DHT22;6085;49.452;8.502;2023-05-10T21:26:31;13.40;99.90
12049;DHT22;6085;49.452;8.502;2023-05-10T21:30:33;13.30;99.90
12049;DHT22;6085;49.452;8.502;2023-05-10T21:34:37;13.20;99.90
12049;DHT22;6085;49.452;8.502;2023-05-10T21:38:39;13.10;99.90
12049;DHT22;6085;49.452;8.502;2023-05-10T21:42:43;13.00;99.90
12049;DHT22;6085;49.452;8.502;2023-05-10T21:46:48;12.90;99.90
12049;DHT22;6085;49.452;8.502;2023-05-10T21:50:52;12.90;99.90
12049;DHT22;6085;49.452;8.502;2023-05-10T21:54:53;12.80;99.90
12049;DHT22;6085;49.452;8.502;2023-05-10T21:58:55;12.70;99.90
12049;DHT22;6085;49.452;8.502;2023-05-10T22:02:57;12.60;99.90
12049;DHT22;6085;49.452;8.502;2023-05-10T22:07:00;12.50;99.90
12049;DHT22;6085;49.452;8.502;2023-05-10T22:11:02;12.50;99.90
12049;DHT22;6085;49.452;8.502;2023-05-10T22:15:05;12.40;99.90
12049;DHT22;6085;49.452;8.502;2023-05-10T22:19:07;12.40;99.90
12049;DHT22;6085;49.452;8.502;2023-05-10T22:23:10;12.30;99.90
12049;DHT22;6085;49.452;8.502;2023-05-10T22:27:12;12.20;99.90
12049;DHT22;6085;49.452;8.502;2023-05-10T22:31:14;12.20;99.90
12049;DHT22;6085;49.452;8.502;2023-05-10T22:35:16;12.20;99.90
12049;DHT22;6085;49.452;8.502;2023-05-10T22:39:19;12.00;99.90
12049;DHT22;6085;49.452;8.502;2023-05-10T22:43:22;11.90;99.90
12049;DHT22;6085;49.452;8.502;2023-05-10T22:47:23;11.80;99.90
12049;DHT22;6085;49.452;8.502;2023-05-10T22:51:25;11.70;99.90
12049;DHT22;6085;49.452;8.502;2023-05-10T22:55:29;11.50;99.90
12049;DHT22;6085;49.452;8.502;2023-05-10T22:59:31;11.40;99.90
12049;DHT22;6085;49.452;8.502;2023-05-10T23:03:33;11.30;99.90
12049;DHT22;6085;49.452;8.502;2023-05-10T23:07:35;11.30;99.90
12049;DHT22;6085;49.452;8.502;2023-05-10T23:11:39;11.30;99.90
12049;DHT22;6085;49.452;8.502;2023-05-10T23:15:40;11.20;99.90
12049;DHT22;6085;49.452;8.502;2023-05-10T23:19:43;11.10;99.90
12049;DHT22;6085;49.452;8.502;2023-05-10T23:23:45;11.10;99.90
12049;DHT22;6085;49.452;8.502;2023-05-10T23:27:48;11.00;99.90
12049;DHT22;6085;49.452;8.502;2023-05-10T23:31:50;11.00;99.90
12049;DHT22;6085;49.452;8.502;2023-05-10T23:35:53;11.00;99.90
12049;DHT22;6085;49.452;8.502;2023-05-10T23:39:55;11.00;99.90
12049;DHT22;6085;49.452;8.502;2023-05-10T23:43:58;11.10;99.90
12049;DHT22;6085;49.452;8.502;2023-05-10T23:48:00;11.10;99.90
12049;DHT22;6085;49.452;8.502;2023-05-10T23:52:02;11.30;99.90
12049;DHT22;6085;49.452;8.502;2023-05-10T23:56:04;11.30;99.90
